Time;durP1;ratioP1;P1;durP2;ratioP2;P2;SDS_P1;SDS_P2;PMS_P1;PMS_P2;Temp;Humidity;BMP_temperature;BMP_pressure;BME280_temperature;BME280_humidity;BME280_pressure;Samples;Min_cycle;Max_cycle;Signal;HPM_P1;HPM_P2
2023/07/06 00:01:25;;;;;;;9.20;6.13;;;25.40;1.00;;;;;;5031453;28;20044;-51
2023/07/06 00:03:54;;;;;;;8.55;5.82;;;25.40;1.00;;;;;;5029102;28;20026;-49
2023/07/06 00:06:20;;;;;;;9.23;5.45;;;25.40;1.00;;;;;;5034926;28;20087;-50
2023/07/06 00:08:46;;;;;;;8.60;5.30;;;25.40;1.00;;;;;;5029501;28;20025;-49
2023/07/06 00:11:11;;;;;;;6.75;5.03;;;25.30;1.00;;;;;;5033773;28;20029;-48
2023/07/06 00:13:39;;;;;;;9.85;5.30;;;25.40;1.00;;;;;;5033373;28;20033;-50
2023/07/06 00:16:05;;;;;;;7.47;4.90;;;25.10;1.00;;;;;;5034633;28;20566;-48
2023/07/06 00:18:32;;;;;;;8.00;5.43;;;25.10;1.00;;;;;;5034053;28;20037;-48
2023/07/06 00:20:58;;;;;;;8.05;5.07;;;25.20;1.00;;;;;;5027863;28;20068;-48
2023/07/06 00:23:23;;;;;;;11.05;5.72;;;25.20;1.00;;;;;;5033860;28;20037;-55
2023/07/06 00:25:50;;;;;;;8.18;5.43;;;25.20;1.00;;;;;;5033158;28;20029;-51
2023/07/06 00:28:21;;;;;;;9.23;5.00;;;25.30;1.00;;;;;;5029972;28;20041;-48
2023/07/06 00:33:15;;;;;;;7.18;6.25;;;25.30;1.00;;;;;;5033492;28;20386;-49
2023/07/06 00:35:41;;;;;;;10.32;6.93;;;25.10;1.00;;;;;;5033584;28;20637;-51
2023/07/06 00:38:10;;;;;;;13.73;10.05;;;25.00;1.00;;;;;;5033788;28;20044;-52
2023/07/06 00:40:40;;;;;;;11.95;10.75;;;25.10;1.00;;;;;;5033578;28;20026;-55
2023/07/06 00:43:15;;;;;;;14.25;9.65;;;25.10;1.00;;;;;;5032921;28;20026;-55
2023/07/06 00:45:45;;;;;;;10.15;9.15;;;25.00;1.00;;;;;;5020875;28;20021;-50
2023/07/06 00:48:21;;;;;;;12.52;8.43;;;25.00;1.00;;;;;;5033459;28;20033;-50
2023/07/06 00:50:52;;;;;;;9.52;7.95;;;25.20;1.00;;;;;;5030157;28;20056;-49
2023/07/06 00:53:19;;;;;;;10.80;7.82;;;25.00;1.00;;;;;;5026905;28;20040;-48
2023/07/06 00:55:45;;;;;;;11.32;8.55;;;24.90;1.00;;;;;;5034594;28;20109;-51
2023/07/06 00:58:27;;;;;;;9.82;7.97;;;24.80;1.00;;;;;;5033200;28;20141;-49
2023/07/06 01:00:57;;;;;;;9.27;8.07;;;24.90;1.00;;;;;;5034351;28;20096;-49
2023/07/06 01:03:23;;;;;;;13.40;9.52;;;25.00;1.00;;;;;;5032717;28;20075;-50
2023/07/06 01:05:52;;;;;;;11.10;9.48;;;24.90;1.00;;;;;;5032898;28;20021;-49
2023/07/06 01:08:21;;;;;;;15.60;10.25;;;25.00;1.00;;;;;;5032529;28;20022;-48
2023/07/06 01:10:48;;;;;;;13.95;10.52;;;24.80;1.00;;;;;;5031096;28;20034;-50
2023/07/06 01:13:14;;;;;;;16.08;10.65;;;24.90;1.00;;;;;;5033111;28;20037;-50
2023/07/06 01:15:54;;;;;;;14.63;10.23;;;25.00;1.00;;;;;;5032755;28;20076;-52
2023/07/06 01:18:29;;;;;;;12.93;9.18;;;24.90;1.00;;;;;;5020731;28;20052;-50
2023/07/06 01:21:10;;;;;;;13.20;8.70;;;25.00;1.00;;;;;;5031033;28;20138;-50
2023/07/06 01:24:05;;;;;;;13.93;9.20;;;25.00;1.00;;;;;;5028155;28;20053;-50
2023/07/06 01:26:43;;;;;;;12.45;7.95;;;24.90;1.00;;;;;;5029266;28;20517;-50
2023/07/06 01:29:18;;;;;;;15.93;8.40;;;25.00;1.00;;;;;;5031638;28;20036;-49
2023/07/06 01:31:52;;;;;;;10.38;7.68;;;25.00;1.00;;;;;;5031803;28;20135;-52
2023/07/06 01:34:25;;;;;;;9.00;7.35;;;25.10;1.00;;;;;;5030408;28;20025;-49
2023/07/06 01:37:18;;;;;;;10.95;7.65;;;25.00;1.00;;;;;;5032580;28;20021;-48
2023/07/06 01:39:44;;;;;;;10.13;7.55;;;25.00;1.00;;;;;;5032026;28;20041;-53
2023/07/06 01:42:11;;;;;;;10.02;7.30;;;25.10;1.00;;;;;;5033190;28;20029;-49
2023/07/06 01:44:40;;;;;;;9.00;6.68;;;25.00;1.00;;;;;;5030414;28;20028;-49
2023/07/06 01:47:07;;;;;;;10.60;7.30;;;25.20;1.00;;;;;;5025401;28;20385;-52
2023/07/06 01:49:33;;;;;;;10.23;7.03;;;25.10;1.00;;;;;;5032780;28;20034;-51
2023/07/06 01:52:12;;;;;;;8.10;7.10;;;25.20;1.00;;;;;;5032419;28;20478;-51
2023/07/06 01:54:58;;;;;;;8.60;7.05;;;25.10;1.00;;;;;;5032735;28;20021;-49
2023/07/06 01:57:50;;;;;;;8.38;6.07;;;25.00;1.00;;;;;;5032937;28;20099;-53
2023/07/06 02:00:19;;;;;;;8.93;6.53;;;25.00;1.00;;;;;;5044938;28;20041;-53
2023/07/06 02:02:51;;;;;;;7.55;6.43;;;25.00;1.00;;;;;;5031747;28;20116;-51
2023/07/06 02:05:19;;;;;;;11.10;6.68;;;25.00;1.00;;;;;;5030954;28;20091;-48
2023/07/06 02:07:45;;;;;;;8.00;5.78;;;25.00;1.00;;;;;;5031699;28;20029;-49
2023/07/06 02:10:16;;;;;;;7.20;5.85;;;25.00;1.00;;;;;;5029912;28;20493;-55
2023/07/06 02:12:47;;;;;;;8.48;5.80;;;25.00;1.00;;;;;;5031613;28;20030;-49
2023/07/06 02:15:18;;;;;;;7.45;5.28;;;25.00;1.00;;;;;;5031635;28;20037;-55
2023/07/06 02:17:45;;;;;;;8.38;5.60;;;25.10;1.00;;;;;;5030198;28;20407;-51
2023/07/06 02:20:11;;;;;;;6.57;5.75;;;25.10;1.00;;;;;;5031521;28;20018;-55
2023/07/06 02:22:39;;;;;;;6.57;5.53;;;25.00;1.00;;;;;;5033430;28;20474;-53
2023/07/06 02:25:06;;;;;;;9.73;6.32;;;25.00;1.00;;;;;;5029617;28;20100;-51
2023/07/06 02:27:32;;;;;;;9.23;6.88;;;25.10;1.00;;;;;;5031300;28;20030;-51
2023/07/06 02:30:02;;;;;;;7.97;7.18;;;25.00;1.00;;;;;;5031159;28;20084;-53
2023/07/06 02:32:29;;;;;;;8.48;6.68;;;25.00;1.00;;;;;;5023166;28;20025;-50
2023/07/06 02:34:54;;;;;;;8.80;6.40;;;25.00;1.00;;;;;;5032489;28;20028;-52
2023/07/06 02:37:21;;;;;;;8.23;6.10;;;25.10;1.00;;;;;;5029864;28;20107;-51
2023/07/06 02:39:47;;;;;;;6.57;5.82;;;25.00;1.00;;;;;;5030512;28;20025;-53
2023/07/06 02:42:14;;;;;;;7.90;6.05;;;25.00;1.00;;;;;;5025241;28;20037;-54
2023/07/06 02:44:40;;;;;;;9.15;5.45;;;25.00;1.00;;;;;;5030444;28;20080;-53
2023/07/06 02:47:07;;;;;;;8.50;5.75;;;25.00;1.00;;;;;;5032972;28;20021;-49
2023/07/06 02:49:42;;;;;;;8.73;5.57;;;25.00;1.00;;;;;;5023425;28;20037;-49
2023/07/06 02:52:08;;;;;;;5.95;5.35;;;25.00;1.00;;;;;;5029318;28;20029;-49
2023/07/06 02:54:33;;;;;;;6.95;5.40;;;25.10;1.00;;;;;;5030289;28;20037;-51
2023/07/06 02:57:02;;;;;;;9.65;6.57;;;25.00;1.00;;;;;;5030241;28;20049;-49
2023/07/06 02:59:32;;;;;;;6.07;5.30;;;25.10;1.00;;;;;;5032109;28;20486;-50
2023/07/06 03:02:00;;;;;;;7.95;6.10;;;25.00;1.00;;;;;;5031312;28;20502;-52
2023/07/06 03:04:27;;;;;;;7.22;6.40;;;25.10;1.00;;;;;;5028864;28;20038;-50
2023/07/06 03:06:55;;;;;;;10.93;6.75;;;25.10;1.00;;;;;;5030696;28;20041;-51
2023/07/06 03:09:21;;;;;;;10.18;8.38;;;25.00;1.00;;;;;;5030436;28;20033;-55
2023/07/06 03:11:47;;;;;;;12.20;7.88;;;24.90;1.00;;;;;;5030502;28;20156;-55
2023/07/06 03:14:13;;;;;;;12.68;7.78;;;24.90;1.00;;;;;;5031083;28;20516;-55
2023/07/06 03:16:39;;;;;;;8.25;7.35;;;25.00;1.00;;;;;;5032811;28;20022;-53
2023/07/06 03:19:09;;;;;;;10.80;7.65;;;24.90;1.00;;;;;;5031261;28;20171;-52
2023/07/06 03:21:39;;;;;;;10.30;6.80;;;24.90;1.00;;;;;;5032795;28;20033;-54
2023/07/06 03:24:07;;;;;;;8.48;6.70;;;24.70;1.00;;;;;;5029232;28;20022;-55
2023/07/06 03:26:37;;;;;;;8.27;6.38;;;24.80;1.00;;;;;;5031171;28;20036;-55
2023/07/06 03:29:08;;;;;;;11.48;5.78;;;24.70;1.00;;;;;;5024804;28;20018;-53
2023/07/06 03:31:34;;;;;;;9.68;7.13;;;24.80;1.00;;;;;;5030005;28;20067;-52
2023/07/06 03:34:00;;;;;;;7.70;6.97;;;24.70;1.00;;;;;;5030300;28;20390;-56
2023/07/06 03:36:26;;;;;;;7.70;6.70;;;24.70;1.00;;;;;;5030189;28;20703;-51
2023/07/06 03:38:52;;;;;;;7.35;6.00;;;24.80;1.00;;;;;;5029923;28;20034;-52
2023/07/06 03:41:18;;;;;;;12.35;6.43;;;24.80;1.00;;;;;;5026381;28;20479;-53
2023/07/06 03:43:45;;;;;;;9.13;6.68;;;24.80;1.00;;;;;;5032256;28;20034;-50
2023/07/06 03:46:12;;;;;;;10.32;7.55;;;24.70;1.00;;;;;;5036655;28;20423;-51
2023/07/06 03:48:40;;;;;;;7.72;6.72;;;24.80;1.00;;;;;;5035091;28;20044;-53
2023/07/06 03:51:07;;;;;;;9.60;7.72;;;24.60;1.00;;;;;;5028541;28;20030;-49
2023/07/06 03:53:37;;;;;;;8.73;6.53;;;24.60;1.00;;;;;;5034422;28;20075;-49
2023/07/06 03:56:03;;;;;;;9.68;7.45;;;24.60;1.00;;;;;;5032532;28;20064;-49
2023/07/06 03:58:29;;;;;;;15.52;8.40;;;24.60;1.00;;;;;;5030173;28;20049;-52
2023/07/06 04:00:59;;;;;;;8.65;7.38;;;24.60;1.00;;;;;;5034124;28;20033;-49
2023/07/06 04:03:27;;;;;;;10.13;8.48;;;24.50;1.00;;;;;;5033945;28;20112;-50
2023/07/06 04:05:54;;;;;;;10.20;8.32;;;24.60;1.00;;;;;;5035500;28;20029;-55
2023/07/06 04:08:22;;;;;;;9.88;8.85;;;24.60;1.00;;;;;;5029522;28;20033;-55
2023/07/06 04:10:48;;;;;;;11.40;9.27;;;24.70;1.00;;;;;;5034437;28;20029;-49
2023/07/06 04:13:14;;;;;;;14.27;10.07;;;24.60;1.00;;;;;;5031587;28;20100;-52
2023/07/06 04:15:46;;;;;;;11.95;10.23;;;24.60;1.00;;;;;;5029306;28;20475;-50
2023/07/06 04:18:12;;;;;;;13.25;10.70;;;24.60;1.00;;;;;;5031378;28;20037;-51
2023/07/06 04:20:38;;;;;;;13.05;10.02;;;24.60;1.00;;;;;;5034871;28;20044;-55
2023/07/06 04:23:04;;;;;;;12.15;10.85;;;24.60;1.00;;;;;;5032405;28;20037;-52
2023/07/06 04:25:33;;;;;;;14.88;10.68;;;24.60;1.00;;;;;;5028361;28;20073;-52
2023/07/06 04:28:04;;;;;;;14.00;9.90;;;24.60;1.00;;;;;;5030424;28;20498;-55
2023/07/06 04:30:35;;;;;;;14.48;10.82;;;24.60;1.00;;;;;;5026793;28;20498;-52
2023/07/06 04:33:03;;;;;;;12.95;9.82;;;24.60;1.00;;;;;;5034500;28;20048;-53
2023/07/06 04:35:30;;;;;;;18.67;12.80;;;24.70;1.00;;;;;;5035360;28;20534;-57
2023/07/06 04:37:55;;;;;;;16.85;12.00;;;24.60;1.00;;;;;;5031360;28;20040;-51
2023/07/06 04:40:21;;;;;;;17.80;11.65;;;24.60;1.00;;;;;;5033548;28;20034;-51
2023/07/06 04:42:50;;;;;;;12.10;10.38;;;24.60;1.00;;;;;;5032508;28;20029;-48
2023/07/06 04:45:17;;;;;;;14.98;11.95;;;24.70;1.00;;;;;;5034258;28;20188;-54
2023/07/06 04:47:44;;;;;;;13.80;11.07;;;24.60;1.00;;;;;;5033557;28;20034;-49
2023/07/06 04:50:15;;;;;;;14.93;11.40;;;24.70;1.00;;;;;;5032003;28;20497;-49
2023/07/06 04:52:40;;;;;;;16.05;12.10;;;24.70;1.00;;;;;;5033677;28;20447;-49
2023/07/06 04:55:08;;;;;;;12.23;10.95;;;24.60;1.00;;;;;;5026523;28;20160;-54
2023/07/06 04:57:34;;;;;;;12.75;11.52;;;24.70;1.00;;;;;;5031128;28;20147;-49
2023/07/06 05:00:12;;;;;;;13.98;11.68;;;24.70;1.00;;;;;;5038935;28;20433;-50
2023/07/06 05:02:37;;;;;;;19.63;11.70;;;24.70;1.00;;;;;;5032806;28;20029;-49
2023/07/06 05:05:03;;;;;;;15.07;12.35;;;24.70;1.00;;;;;;5032531;28;20028;-49
2023/07/06 05:07:30;;;;;;;18.10;11.10;;;24.60;1.00;;;;;;5027100;28;20032;-51
2023/07/06 05:09:56;;;;;;;16.85;11.63;;;24.60;1.00;;;;;;5030338;28;20092;-51
2023/07/06 05:12:22;;;;;;;16.13;12.15;;;24.70;1.00;;;;;;5031676;28;20494;-52
2023/07/06 05:14:47;;;;;;;15.40;12.85;;;24.70;1.00;;;;;;5033396;28;20025;-49
2023/07/06 05:17:14;;;;;;;17.00;12.40;;;24.70;1.00;;;;;;5033765;28;20044;-53
2023/07/06 05:19:42;;;;;;;16.63;12.75;;;24.50;1.00;;;;;;5031544;28;20562;-51
2023/07/06 05:22:08;;;;;;;15.07;13.48;;;24.60;1.00;;;;;;5029701;28;20021;-49
2023/07/06 05:24:34;;;;;;;16.75;13.00;;;24.50;1.00;;;;;;5029161;28;20033;-50
2023/07/06 05:26:59;;;;;;;16.45;12.57;;;24.60;1.00;;;;;;5028234;28;20489;-51
2023/07/06 05:29:25;;;;;;;13.10;11.65;;;24.60;1.00;;;;;;5030266;28;20033;-49
2023/07/06 05:31:51;;;;;;;14.25;11.90;;;24.40;1.00;;;;;;5033048;28;20110;-52
2023/07/06 05:34:16;;;;;;;14.73;11.68;;;24.50;1.00;;;;;;5032647;28;20033;-49
2023/07/06 05:36:42;;;;;;;14.98;11.45;;;24.50;1.00;;;;;;5033299;28;20022;-51
2023/07/06 05:39:07;;;;;;;16.17;12.30;;;24.40;1.00;;;;;;5032508;28;20040;-51
2023/07/06 05:41:33;;;;;;;14.00;11.98;;;24.60;1.00;;;;;;5030719;28;20312;-51
2023/07/06 05:43:59;;;;;;;12.52;11.20;;;24.60;1.00;;;;;;5031365;28;20053;-51
2023/07/06 05:46:25;;;;;;;13.52;10.95;;;24.60;1.00;;;;;;5033251;28;20033;-49
2023/07/06 05:48:53;;;;;;;13.02;11.32;;;24.60;1.00;;;;;;5031338;28;20566;-52
2023/07/06 05:51:19;;;;;;;14.43;11.73;;;24.60;1.00;;;;;;5033823;28;20044;-52
2023/07/06 05:53:48;;;;;;;14.65;11.38;;;24.70;1.00;;;;;;5033295;28;20029;-50
2023/07/06 05:56:15;;;;;;;12.63;10.90;;;24.60;1.00;;;;;;5033768;28;20032;-51
2023/07/06 05:58:41;;;;;;;12.55;10.82;;;24.60;1.00;;;;;;5026921;28;20064;-50
2023/07/06 06:01:07;;;;;;;11.43;9.95;;;24.60;1.00;;;;;;5033784;28;20028;-50
2023/07/06 06:03:34;;;;;;;11.73;9.50;;;24.70;1.00;;;;;;5029496;28;20038;-49
2023/07/06 06:06:00;;;;;;;10.07;8.70;;;24.70;1.00;;;;;;5032938;28;20021;-51
2023/07/06 06:08:28;;;;;;;9.05;7.68;;;24.50;1.00;;;;;;5030942;28;20068;-49
2023/07/06 06:10:55;;;;;;;7.93;6.90;;;24.50;1.00;;;;;;5032618;28;20025;-50
2023/07/06 06:13:21;;;;;;;9.18;6.95;;;24.40;1.00;;;;;;5029941;28;20124;-49
2023/07/06 06:15:48;;;;;;;7.30;6.60;;;24.50;1.00;;;;;;5030372;28;20104;-49
2023/07/06 06:18:14;;;;;;;10.40;8.23;;;24.50;1.00;;;;;;5030799;28;20398;-49
2023/07/06 06:20:42;;;;;;;9.52;6.57;;;24.40;1.00;;;;;;5032862;28;20030;-48
2023/07/06 06:23:10;;;;;;;10.25;7.10;;;24.40;1.00;;;;;;5023774;28;20076;-49
2023/07/06 06:25:40;;;;;;;11.82;7.38;;;24.50;1.00;;;;;;5019384;28;20034;-49
2023/07/06 06:28:09;;;;;;;13.02;7.63;;;24.50;1.00;;;;;;5032305;28;20040;-49
2023/07/06 06:30:37;;;;;;;11.55;8.13;;;24.40;1.00;;;;;;5033494;28;20030;-50
2023/07/06 06:33:03;;;;;;;12.40;10.23;;;24.40;1.00;;;;;;5023020;28;20014;-52
2023/07/06 06:35:29;;;;;;;14.35;11.57;;;24.40;1.00;;;;;;5030573;28;20048;-50
2023/07/06 06:37:57;;;;;;;12.38;11.13;;;24.50;1.00;;;;;;5031421;28;20042;-49
2023/07/06 06:40:24;;;;;;;12.68;10.85;;;24.50;1.00;;;;;;5031307;28;20032;-53
2023/07/06 06:42:50;;;;;;;12.45;11.25;;;24.40;1.00;;;;;;5031004;28;20383;-53
2023/07/06 06:45:18;;;;;;;11.43;9.70;;;24.40;1.00;;;;;;5029421;28;20025;-52
2023/07/06 06:47:44;;;;;;;12.32;11.02;;;24.60;1.00;;;;;;5031679;28;20044;-52
2023/07/06 06:50:16;;;;;;;11.55;10.00;;;24.70;1.00;;;;;;5031557;28;20039;-50
2023/07/06 06:52:42;;;;;;;11.43;8.65;;;24.40;1.00;;;;;;5025721;28;20021;-55
2023/07/06 06:55:09;;;;;;;11.98;9.88;;;24.40;1.00;;;;;;5028593;28;20075;-52
2023/07/06 06:57:34;;;;;;;10.13;9.05;;;24.40;1.00;;;;;;5029959;28;20099;-51
2023/07/06 07:00:00;;;;;;;11.55;9.18;;;24.60;1.00;;;;;;5030404;28;20034;-54
2023/07/06 07:02:26;;;;;;;9.55;8.63;;;24.60;1.00;;;;;;5026079;28;20026;-53
2023/07/06 07:04:52;;;;;;;10.27;8.65;;;24.60;1.00;;;;;;5028793;28;20075;-52
2023/07/06 07:07:18;;;;;;;9.88;8.88;;;24.70;1.00;;;;;;5031286;28;20502;-52
2023/07/06 07:09:47;;;;;;;9.50;8.57;;;24.70;1.00;;;;;;5024921;28;20037;-56
2023/07/06 07:12:12;;;;;;;13.63;9.80;;;24.70;1.00;;;;;;5030890;28;20033;-56
2023/07/06 07:14:38;;;;;;;10.63;9.02;;;24.80;1.00;;;;;;5034776;28;20391;-55
2023/07/06 07:17:07;;;;;;;8.95;8.07;;;24.80;1.00;;;;;;5029929;28;20052;-56
2023/07/06 07:19:34;;;;;;;9.65;8.40;;;24.70;1.00;;;;;;5035265;28;20033;-55
2023/07/06 07:22:00;;;;;;;9.43;7.78;;;24.60;1.00;;;;;;5032479;28;20037;-54
2023/07/06 07:24:29;;;;;;;9.45;8.05;;;24.50;1.00;;;;;;5035148;28;20475;-54
2023/07/06 07:26:57;;;;;;;9.60;7.72;;;24.50;1.00;;;;;;5035512;28;20041;-52
2023/07/06 07:29:23;;;;;;;9.02;7.85;;;24.50;1.00;;;;;;5033347;28;20045;-55
2023/07/06 07:31:50;;;;;;;8.77;7.10;;;24.40;1.00;;;;;;5033160;28;20084;-49
2023/07/06 07:34:19;;;;;;;11.48;6.80;;;24.40;1.00;;;;;;5030906;28;20026;-48
2023/07/06 07:36:45;;;;;;;9.63;5.90;;;24.30;1.00;;;;;;5034599;28;20052;-51
2023/07/06 07:39:11;;;;;;;5.63;3.88;;;24.20;1.00;;;;;;5035488;28;20465;-49
2023/07/06 07:41:37;;;;;;;6.30;3.95;;;24.10;1.00;;;;;;5027007;28;20020;-49
2023/07/06 07:44:04;;;;;;;4.93;3.63;;;24.10;1.00;;;;;;5033329;28;20034;-53
2023/07/06 07:46:30;;;;;;;8.13;5.55;;;24.10;1.00;;;;;;5030150;28;20022;-53
2023/07/06 07:48:56;;;;;;;8.68;5.88;;;23.90;1.00;;;;;;5034659;28;20029;-53
2023/07/06 07:51:26;;;;;;;9.02;6.32;;;23.90;1.00;;;;;;5034329;28;20060;-53
2023/07/06 07:53:54;;;;;;;6.90;6.20;;;23.90;1.00;;;;;;5031189;28;20109;-49
2023/07/06 07:56:22;;;;;;;7.75;6.70;;;23.80;1.00;;;;;;5029627;28;20025;-53
2023/07/06 07:58:48;;;;;;;8.70;7.90;;;23.80;1.00;;;;;;5035454;28;20041;-52
2023/07/06 08:01:21;;;;;;;8.55;7.15;;;23.70;1.00;;;;;;5034450;28;20062;-53
2023/07/06 08:03:47;;;;;;;7.80;6.35;;;23.70;1.00;;;;;;5030216;28;20021;-51
2023/07/06 08:06:14;;;;;;;9.13;6.68;;;23.50;1.00;;;;;;5034134;28;20548;-54
2023/07/06 08:08:43;;;;;;;7.88;5.70;;;23.70;1.00;;;;;;5034407;28;20026;-52
2023/07/06 08:11:12;;;;;;;9.60;4.15;;;23.70;1.00;;;;;;5033961;28;20101;-52
2023/07/06 08:13:37;;;;;;;43.15;11.48;;;23.20;1.00;;;;;;5034931;28;20041;-49
2023/07/06 08:16:05;;;;;;;31.73;8.32;;;21.80;1.00;;;;;;5035023;28;20025;-48
2023/07/06 08:18:32;;;;;;;17.60;6.53;;;21.20;26.20;;;;;;5032279;28;20534;-54
2023/07/06 08:20:59;;;;;;;19.30;7.63;;;20.70;55.60;;;;;;5030165;28;20033;-47
2023/07/06 08:23:27;;;;;;;16.88;6.32;;;20.40;50.40;;;;;;5033994;28;20060;-49
2023/07/06 08:25:54;;;;;;;8.75;6.00;;;20.20;8.40;;;;;;5025730;28;20120;-50
2023/07/06 08:28:31;;;;;;;15.23;6.93;;;19.80;19.90;;;;;;5032508;28;20037;-48
2023/07/06 08:31:01;;;;;;;8.00;5.50;;;19.60;1.00;;;;;;5027226;28;20021;-47
2023/07/06 08:33:30;;;;;;;7.95;4.63;;;19.30;1.00;;;;;;5031185;28;20059;-52
2023/07/06 08:35:56;;;;;;;5.10;4.00;;;19.00;1.00;;;;;;5033307;28;20025;-53
2023/07/06 08:38:22;;;;;;;4.93;4.22;;;19.10;1.00;;;;;;5033670;28;20406;-49
2023/07/06 08:40:52;;;;;;;6.60;3.80;;;19.00;1.00;;;;;;5032841;28;20028;-47
2023/07/06 08:43:26;;;;;;;7.25;3.92;;;19.10;1.00;;;;;;5034191;28;20033;-48
2023/07/06 08:45:55;;;;;;;;;;;19.30;1.00;;;;;;5034660;28;20490;-53
2023/07/06 08:48:26;;;;;;;5.03;4.20;;;19.50;1.00;;;;;;5034462;28;19963;-48
2023/07/06 08:50:56;;;;;;;5.72;3.92;;;19.70;1.00;;;;;;5030472;28;20037;-47
2023/07/06 08:53:27;;;;;;;5.78;3.33;;;20.10;1.00;;;;;;5034389;28;20394;-52
2023/07/06 08:55:54;;;;;;;4.45;2.58;;;20.10;1.00;;;;;;5034700;28;20214;-54
2023/07/06 08:58:29;;;;;;;4.50;2.60;;;20.20;1.00;;;;;;5030242;28;20521;-57
2023/07/06 09:01:02;;;;;;;4.65;2.70;;;20.40;1.00;;;;;;5030355;28;20030;-54
2023/07/06 09:03:35;;;;;;;4.00;2.67;;;20.40;1.00;;;;;;5032508;28;20033;-53
2023/07/06 09:06:02;;;;;;;3.53;3.00;;;20.50;1.00;;;;;;5034250;28;20454;-54
2023/07/06 09:08:28;;;;;;;4.35;2.88;;;20.80;1.00;;;;;;5031322;28;20029;-54
2023/07/06 09:10:54;;;;;;;6.25;3.65;;;21.20;1.00;;;;;;5034145;28;20116;-55
2023/07/06 09:13:24;;;;;;;5.68;3.35;;;21.40;1.00;;;;;;5032811;28;20136;-53
2023/07/06 09:16:19;;;;;;;5.43;3.20;;;21.60;1.00;;;;;;5030115;28;20527;-54
2023/07/06 09:18:50;;;;;;;4.32;2.72;;;21.80;1.00;;;;;;5025392;28;20064;-55
2023/07/06 09:21:25;;;;;;;4.65;2.65;;;22.10;1.00;;;;;;5032324;28;20026;-54
2023/07/06 09:23:51;;;;;;;3.72;3.13;;;22.10;1.00;;;;;;5027900;28;20029;-56
2023/07/06 09:26:38;;;;;;;4.28;3.10;;;22.20;1.00;;;;;;5031193;28;20538;-54
2023/07/06 09:29:17;;;;;;;3.83;2.70;;;22.40;1.00;;;;;;5032553;28;20072;-55
2023/07/06 09:31:44;;;;;;;3.15;2.42;;;22.40;1.00;;;;;;5032162;28;20065;-53
2023/07/06 09:34:31;;;;;;;3.20;2.67;;;22.40;1.00;;;;;;5032194;28;20032;-51
2023/07/06 09:36:59;;;;;;;4.57;3.78;;;22.50;1.00;;;;;;5027608;28;20072;-54
2023/07/06 09:39:26;;;;;;;5.00;3.00;;;22.30;1.00;;;;;;5032093;28;20037;-51
2023/07/06 09:41:52;;;;;;;2.88;2.67;;;22.40;1.00;;;;;;5027829;28;20376;-52
2023/07/06 09:44:36;;;;;;;3.47;2.60;;;22.40;1.00;;;;;;5030758;28;20021;-54
2023/07/06 09:47:03;;;;;;;3.13;2.78;;;22.50;1.00;;;;;;5026105;28;20113;-54
2023/07/06 09:49:44;;;;;;;3.60;2.95;;;22.70;1.00;;;;;;5024458;28;20029;-53
2023/07/06 09:52:13;;;;;;;3.35;3.03;;;22.70;1.00;;;;;;5026382;28;20045;-55
2023/07/06 09:54:57;;;;;;;4.47;4.07;;;22.80;1.00;;;;;;5030789;28;20554;-53
2023/07/06 09:57:25;;;;;;;4.70;3.25;;;23.00;1.00;;;;;;5027335;28;20046;-52
2023/07/06 09:59:52;;;;;;;4.72;3.25;;;23.20;1.00;;;;;;5032410;28;20030;-51
2023/07/06 10:02:27;;;;;;;5.28;3.33;;;23.40;1.00;;;;;;5031980;28;20045;-53
2023/07/06 10:05:11;;;;;;;4.63;2.95;;;23.60;1.00;;;;;;5031543;28;20057;-53
2023/07/06 10:07:42;;;;;;;3.93;3.33;;;23.80;1.00;;;;;;5030326;28;20045;-54
2023/07/06 10:10:33;;;;;;;3.45;2.88;;;23.90;1.00;;;;;;5030659;28;20025;-53
2023/07/06 10:13:11;;;;;;;3.47;2.72;;;23.90;1.00;;;;;;5027771;28;20113;-51
2023/07/06 10:15:47;;;;;;;5.18;2.85;;;23.90;1.00;;;;;;5029411;28;20100;-50
2023/07/06 10:18:27;;;;;;;5.15;2.92;;;23.80;1.00;;;;;;5030862;28;20037;-54
2023/07/06 10:21:20;;;;;;;6.57;3.60;;;23.80;1.00;;;;;;5028404;28;20102;-53
2023/07/06 10:23:54;;;;;;;5.57;3.40;;;23.80;1.00;;;;;;5019857;28;20049;-55
2023/07/06 10:27:13;;;;;;;5.25;3.63;;;23.90;1.00;;;;;;5031932;28;20123;-54
2023/07/06 10:29:46;;;;;;;5.00;3.63;;;23.80;1.00;;;;;;5028144;28;20471;-54
2023/07/06 10:32:17;;;;;;;5.53;4.40;;;23.80;1.00;;;;;;5031729;28;20071;-52
2023/07/06 10:35:13;;;;;;;5.50;4.63;;;23.80;1.00;;;;;;5031884;28;20108;-52
2023/07/06 10:37:41;;;;;;;4.88;3.47;;;24.00;1.00;;;;;;5029917;28;20071;-53
2023/07/06 10:40:19;;;;;;;5.90;2.80;;;24.10;1.00;;;;;;5031519;28;20042;-52
2023/07/06 10:43:07;;;;;;;4.75;2.58;;;24.10;1.00;;;;;;5030383;28;20044;-53
2023/07/06 10:45:32;;;;;;;3.75;2.92;;;24.20;1.00;;;;;;5029702;28;20041;-50
2023/07/06 10:48:13;;;;;;;3.72;2.30;;;24.20;1.00;;;;;;5029766;28;20124;-54
2023/07/06 10:50:51;;;;;;;3.40;2.50;;;24.40;1.00;;;;;;5029597;28;20038;-53
2023/07/06 10:53:41;;;;;;;3.17;2.72;;;24.50;1.00;;;;;;5028280;28;20115;-49
2023/07/06 10:56:07;;;;;;;2.72;2.20;;;24.50;1.00;;;;;;5031131;28;20580;-55
2023/07/06 10:58:44;;;;;;;2.17;1.98;;;24.60;1.00;;;;;;5031397;28;20045;-50
2023/07/06 11:01:11;;;;;;;3.28;2.10;;;24.70;1.00;;;;;;5031395;28;20049;-50
2023/07/06 11:03:38;;;;;;;4.47;2.42;;;24.80;1.00;;;;;;5028332;28;20044;-52
2023/07/06 11:06:10;;;;;;;3.50;3.20;;;24.90;1.00;;;;;;5030704;28;20037;-54
2023/07/06 11:09:14;;;;;;;2.67;2.20;;;25.00;1.00;;;;;;5030921;28;20043;-55
2023/07/06 11:12:03;;;;;;;4.45;2.25;;;25.20;1.00;;;;;;5027179;28;20041;-53
2023/07/06 11:14:33;;;;;;;2.83;2.10;;;25.30;1.00;;;;;;5030260;28;20053;-54
2023/07/06 11:17:18;;;;;;;4.95;2.60;;;25.50;1.00;;;;;;5028733;28;20425;-55
2023/07/06 11:20:07;;;;;;;2.80;2.33;;;25.60;1.00;;;;;;5028424;28;20068;-55
2023/07/06 11:22:33;;;;;;;3.78;2.05;;;25.80;1.00;;;;;;5026848;28;20048;-55
2023/07/06 11:25:03;;;;;;;2.80;2.10;;;26.00;1.00;;;;;;5030649;28;20052;-54
2023/07/06 11:27:36;;;;;;;2.40;2.20;;;27.70;1.00;;;;;;5028753;28;20429;-55
2023/07/06 11:30:18;;;;;;;6.60;3.22;;;30.10;99.90;;;;;;5028217;28;20171;-50
2023/07/06 11:33:06;;;;;;;4.25;3.70;;;31.20;99.90;;;;;;5020149;28;20505;-55
2023/07/06 11:36:00;;;;;;;5.38;2.60;;;31.50;99.90;;;;;;5030152;28;20052;-55
2023/07/06 11:39:00;;;;;;;;;;;31.90;99.90;;;;;;5024115;28;21088;-52
2023/07/06 11:41:35;;;;;;;9.80;7.40;;;32.70;99.90;;;;;;5018456;28;19908;-50
2023/07/06 11:44:03;;;;;;;14.23;9.27;;;36.40;99.90;;;;;;5030727;28;20128;-55
2023/07/06 11:46:38;;;;;;;7.53;6.03;;;38.60;99.90;;;;;;5031464;28;20033;-51
2023/07/06 11:49:17;;;;;;;5.05;4.47;;;40.30;99.90;;;;;;5029734;28;20386;-50
2023/07/06 11:51:47;;;;;;;11.50;5.57;;;41.40;99.90;;;;;;5025125;28;20060;-53
2023/07/06 11:54:39;;;;;;;4.72;3.95;;;41.80;99.90;;;;;;5029945;28;20065;-49
2023/07/06 11:59:52;;;;;;;4.18;3.80;;;42.40;99.90;;;;;;5029407;28;20103;-52
2023/07/06 12:02:20;;;;;;;6.15;4.65;;;42.50;99.90;;;;;;5033067;28;20052;-53
2023/07/06 12:04:46;;;;;;;4.50;4.10;;;41.70;99.90;;;;;;5034206;28;20418;-49
2023/07/06 12:07:37;;;;;;;6.10;4.03;;;42.40;99.90;;;;;;5035237;28;20031;-52
2023/07/06 12:10:06;;;;;;;3.30;3.10;;;43.00;99.90;;;;;;5033903;28;20037;-51
2023/07/06 12:12:33;;;;;;;4.28;3.63;;;43.00;99.90;;;;;;5033404;28;20029;-53
2023/07/06 12:15:03;;;;;;;4.72;3.60;;;42.40;99.90;;;;;;5033917;28;20017;-51
2023/07/06 12:17:32;;;;;;;4.10;3.53;;;41.50;99.90;;;;;;5030492;28;20114;-51
2023/07/06 12:19:58;;;;;;;4.13;3.53;;;40.10;99.90;;;;;;5026481;28;20022;-53
2023/07/06 12:22:24;;;;;;;5.20;4.13;;;37.90;99.90;;;;;;5037492;28;20482;-54
2023/07/06 12:24:55;;;;;;;6.93;3.78;;;36.40;99.90;;;;;;5035053;28;20022;-55
2023/07/06 12:27:21;;;;;;;4.50;4.10;;;35.40;99.90;;;;;;5036333;28;20032;-50
2023/07/06 12:29:46;;;;;;;5.03;4.20;;;35.20;99.90;;;;;;5034619;28;20540;-54
2023/07/06 12:32:22;;;;;;;4.65;4.15;;;34.90;99.90;;;;;;5039552;28;20048;-54
2023/07/06 12:34:52;;;;;;;3.83;3.50;;;34.00;99.90;;;;;;5035695;28;20029;-50
2023/07/06 12:37:21;;;;;;;5.35;3.70;;;33.80;99.90;;;;;;5035005;28;20435;-55
2023/07/06 12:39:48;;;;;;;5.78;4.00;;;32.10;99.90;;;;;;5033901;28;20103;-52
2023/07/06 12:42:17;;;;;;;4.80;3.88;;;31.00;99.90;;;;;;5035065;28;20075;-52
2023/07/06 12:44:45;;;;;;;7.97;6.10;;;30.10;99.90;;;;;;5031849;28;20505;-56
2023/07/06 12:47:22;;;;;;;8.32;4.35;;;29.60;99.90;;;;;;5028136;28;20087;-51
2023/07/06 12:49:50;;;;;;;5.10;4.65;;;29.20;99.90;;;;;;5032513;28;20451;-52
2023/07/06 12:52:17;;;;;;;4.28;3.60;;;28.60;99.90;;;;;;5034124;28;20013;-53
2023/07/06 12:54:52;;;;;;;3.92;3.35;;;28.40;99.90;;;;;;5034868;28;20467;-55
2023/07/06 12:57:24;;;;;;;4.68;4.18;;;28.10;99.90;;;;;;5027269;28;20072;-52
2023/07/06 12:59:54;;;;;;;5.43;3.58;;;27.90;99.90;;;;;;5033646;28;20099;-50
2023/07/06 13:02:23;;;;;;;5.40;3.78;;;27.80;99.90;;;;;;5033769;28;20084;-53
2023/07/06 13:04:50;;;;;;;5.07;4.35;;;28.00;99.90;;;;;;5034908;28;20084;-54
2023/07/06 13:07:19;;;;;;;4.85;3.53;;;28.10;99.90;;;;;;5034343;28;20025;-50
2023/07/06 13:09:45;;;;;;;4.20;3.58;;;28.00;99.90;;;;;;5034810;28;20037;-53
2023/07/06 13:12:20;;;;;;;5.40;3.97;;;27.70;99.90;;;;;;5032333;28;20446;-50